Weather at Zanesville Municipal Airport

Public forecast

Using degrees Fahrenheit for public forecast. Weather courtesy of forecast.io.

Current aviation weather report (METAR) for Zanesville Municipal Airport

Retrieved 2021/09/25 16:53 UTC (26 minutes ago):

KZZV 251653Z AUTO 23010KT 10SM CLR 19/12 A3001 RMK AO2 SLP161 T01890117

Aviation forecast (TAF) for Zanesville Municipal Airport

Retrieved 2021/09/25 12:24 UTC (5 hours ago):

TAF KZZV 251121Z 2512/2612 15006KT P6SM BKN250 FM251400 21010KT P6SM BKN100 FM251700 23008KT P6SM VCSH BKN040 FM252200 27005KT P6SM SCT040